Time;durP1;ratioP1;P1;durP2;ratioP2;P2;SDS_P1;SDS_P2;PMS_P1;PMS_P2;Temp;Humidity;BMP_temperature;BMP_pressure;BME280_temperature;BME280_humidity;BME280_pressure;Samples;Min_cycle;Max_cycle;Signal;HPM_P1;HPM_P2
2021/04/20 00:01:46;;;;;;;14.07;11.87;;;7.70;90.20;;;;;;5036670;28;20226;-79
2021/04/20 00:04:13;;;;;;;15.97;13.03;;;7.60;90.10;;;;;;5024642;28;20235;-79
2021/04/20 00:06:40;;;;;;;25.87;17.03;;;7.60;90.20;;;;;;5030892;28;20203;-79
2021/04/20 00:09:09;;;;;;;18.03;13.57;;;7.60;90.30;;;;;;5041046;28;20217;-79
2021/04/20 00:11:40;;;;;;;19.77;13.03;;;7.50;90.40;;;;;;5049727;28;20221;-79
2021/04/20 00:14:14;;;;;;;20.93;16.00;;;7.50;90.50;;;;;;5034787;28;20237;-79
2021/04/20 00:16:41;;;;;;;13.77;12.30;;;7.50;90.50;;;;;;5048790;28;20214;-79
2021/04/20 00:19:08;;;;;;;19.27;14.33;;;7.50;90.50;;;;;;5041241;28;20229;-79
2021/04/20 00:21:35;;;;;;;14.27;12.23;;;7.60;90.50;;;;;;5031386;28;20222;-80
2021/04/20 00:24:04;;;;;;;14.13;11.80;;;7.60;90.50;;;;;;5052567;28;20248;-80
2021/04/20 00:26:45;;;;;;;34.97;13.30;;;7.60;90.40;;;;;;5037430;28;20225;-79
2021/04/20 00:29:12;;;;;;;11.80;10.07;;;7.60;90.50;;;;;;5055829;28;20224;-79
2021/04/20 00:31:39;;;;;;;12.90;9.77;;;7.50;90.50;;;;;;5037946;28;20219;-80
2021/04/20 00:34:05;;;;;;;10.07;8.80;;;7.50;90.60;;;;;;5034577;28;20234;-79
2021/04/20 00:36:33;;;;;;;12.43;9.87;;;7.50;90.50;;;;;;5055796;28;20202;-79
2021/04/20 00:38:59;;;;;;;12.50;10.20;;;7.40;90.40;;;;;;5034817;28;20768;-79
2021/04/20 00:41:26;;;;;;;12.13;10.93;;;7.40;90.50;;;;;;5047974;28;20219;-79
2021/04/20 00:43:52;;;;;;;57.27;12.53;;;7.40;90.50;;;;;;5046881;28;20219;-79
2021/04/20 00:46:21;;;;;;;15.90;13.33;;;7.40;90.60;;;;;;5031422;28;20222;-79
2021/04/20 00:48:48;;;;;;;39.17;9.53;;;7.40;90.50;;;;;;5055287;28;20535;-79
2021/04/20 00:51:17;;;;;;;13.80;12.17;;;7.40;90.40;;;;;;5047873;28;20243;-79
2021/04/20 00:53:47;;;;;;;22.37;17.30;;;7.30;90.40;;;;;;5059077;28;20235;-79
2021/04/20 00:56:18;;;;;;;24.27;18.77;;;7.30;90.70;;;;;;5044034;28;20219;-79
2021/04/20 00:58:46;;;;;;;22.20;16.97;;;7.20;90.90;;;;;;5045486;28;20704;-79
2021/04/20 01:01:13;;;;;;;23.63;17.13;;;7.20;91.10;;;;;;5052530;28;20279;-79
2021/04/20 01:03:41;;;;;;;17.60;14.70;;;7.30;91.20;;;;;;5048241;28;20221;-79
2021/04/20 01:06:08;;;;;;;14.53;11.80;;;7.30;91.20;;;;;;5042515;28;20218;-79
2021/04/20 01:08:36;;;;;;;14.50;12.23;;;7.30;91.10;;;;;;5056251;28;20238;-79
2021/04/20 01:11:04;;;;;;;17.33;14.27;;;7.30;90.90;;;;;;5034949;28;20259;-79
2021/04/20 01:13:32;;;;;;;18.20;15.03;;;7.30;90.70;;;;;;5034540;28;20214;-79
2021/04/20 01:15:59;;;;;;;17.93;15.23;;;7.20;91.10;;;;;;5041815;28;20215;-80
2021/04/20 01:18:28;;;;;;;15.27;12.23;;;7.20;90.90;;;;;;5031543;28;20215;-80
2021/04/20 01:21:05;;;;;;;13.93;11.90;;;7.20;90.90;;;;;;5027227;28;20222;-79
2021/04/20 01:23:47;;;;;;;14.77;11.90;;;7.20;90.80;;;;;;5033579;28;20305;-80
2021/04/20 01:26:15;;;;;;;13.33;11.23;;;7.10;90.70;;;;;;5051258;28;20213;-79
2021/04/20 01:28:43;;;;;;;26.93;11.93;;;7.10;90.60;;;;;;5059742;28;20250;-79
2021/04/20 01:31:12;;;;;;;10.00;8.40;;;7.00;90.50;;;;;;5051889;28;20257;-79
2021/04/20 01:33:41;;;;;;;12.73;9.50;;;6.80;90.10;;;;;;5030472;28;20298;-79
2021/04/20 01:36:13;;;;;;;18.23;13.13;;;6.70;90.00;;;;;;5041530;28;20619;-79
2021/04/20 01:38:45;;;;;;;17.47;12.97;;;6.60;90.20;;;;;;5037851;28;20218;-80
2021/04/20 01:41:12;;;;;;;16.60;12.60;;;6.60;90.50;;;;;;5043318;28;20226;-79
2021/04/20 01:43:40;;;;;;;18.37;12.77;;;6.50;90.50;;;;;;5025313;28;20215;-79
2021/04/20 01:46:07;;;;;;;20.77;16.50;;;6.50;90.50;;;;;;5026521;28;20218;-79
2021/04/20 01:48:35;;;;;;;22.10;14.17;;;6.60;90.60;;;;;;5035625;28;20222;-79
2021/04/20 01:51:03;;;;;;;20.10;14.30;;;6.60;90.60;;;;;;5040862;28;20231;-79
2021/04/20 01:53:30;;;;;;;15.97;10.63;;;6.70;90.90;;;;;;5042727;28;20207;-79
2021/04/20 01:55:58;;;;;;;12.67;11.07;;;6.70;90.60;;;;;;5039790;28;20223;-79
2021/04/20 01:58:27;;;;;;;11.53;10.30;;;6.60;90.50;;;;;;5037791;28;20220;-79
2021/04/20 02:00:55;;;;;;;19.30;13.10;;;6.60;90.40;;;;;;5033000;28;20222;-80
2021/04/20 02:03:28;;;;;;;19.63;13.00;;;6.60;90.40;;;;;;5034653;28;20305;-79
2021/04/20 02:05:56;;;;;;;18.03;13.60;;;6.60;90.40;;;;;;5057380;28;20226;-79
2021/04/20 02:08:23;;;;;;;22.40;16.73;;;6.60;90.40;;;;;;5053868;28;20258;-79
2021/04/20 02:10:51;;;;;;;27.47;18.53;;;6.50;90.40;;;;;;5039624;28;20235;-79
2021/04/20 02:13:20;;;;;;;21.23;15.20;;;6.50;90.50;;;;;;5030052;28;20592;-79
2021/04/20 02:15:47;;;;;;;15.23;12.53;;;6.60;90.60;;;;;;5039600;28;20214;-79
2021/04/20 02:18:15;;;;;;;15.47;11.63;;;6.60;90.60;;;;;;5028093;28;20215;-80
2021/04/20 02:20:42;;;;;;;14.47;11.57;;;6.60;90.50;;;;;;5052386;28;20245;-79
2021/04/20 02:23:09;;;;;;;15.27;11.07;;;6.60;90.40;;;;;;5057217;28;20264;-79
2021/04/20 02:25:38;;;;;;;21.70;13.13;;;6.60;90.40;;;;;;5032856;28;20229;-79
2021/04/20 02:28:05;;;;;;;19.30;13.17;;;6.60;90.40;;;;;;5034188;28;20253;-79
2021/04/20 02:30:32;;;;;;;15.63;11.67;;;6.60;90.40;;;;;;5042787;28;20234;-79
2021/04/20 02:32:58;;;;;;;14.33;11.10;;;6.60;90.50;;;;;;5043335;28;20278;-80
2021/04/20 02:35:28;;;;;;;13.73;11.57;;;6.60;90.50;;;;;;5039085;28;20213;-79
2021/04/20 02:37:55;;;;;;;12.20;10.70;;;6.70;90.60;;;;;;5024014;28;20220;-79
2021/04/20 02:40:30;;;;;;;11.93;9.93;;;6.70;90.60;;;;;;5028391;28;20250;-80
2021/04/20 02:42:57;;;;;;;12.83;9.60;;;6.70;90.60;;;;;;5044266;28;20289;-79
2021/04/20 02:45:27;;;;;;;12.43;9.57;;;6.70;90.50;;;;;;5030715;28;20215;-80
2021/04/20 02:47:55;;;;;;;11.60;10.30;;;6.60;90.50;;;;;;5035336;28;20216;-80
2021/04/20 02:50:26;;;;;;;19.57;12.73;;;6.60;90.50;;;;;;5040587;28;20237;-80
2021/04/20 02:52:55;;;;;;;13.27;11.87;;;6.50;90.50;;;;;;5024211;28;20237;-79
2021/04/20 02:55:23;;;;;;;16.53;12.30;;;6.50;90.60;;;;;;5058705;28;20308;-80
2021/04/20 02:57:54;;;;;;;17.57;14.00;;;6.50;90.60;;;;;;5050501;28;20225;-79
2021/04/20 03:00:23;;;;;;;17.43;13.40;;;6.50;90.80;;;;;;5058572;28;20225;-79
2021/04/20 03:02:58;;;;;;;15.87;12.70;;;6.60;90.90;;;;;;5040904;28;20648;-80
2021/04/20 03:05:27;;;;;;;17.23;13.17;;;6.60;91.00;;;;;;5039423;28;20228;-80
2021/04/20 03:07:55;;;;;;;16.20;12.20;;;6.70;91.00;;;;;;5040137;28;20243;-79
2021/04/20 03:10:23;;;;;;;12.60;11.27;;;6.70;91.00;;;;;;5070013;28;20498;-79
2021/04/20 03:12:50;;;;;;;15.00;12.07;;;6.70;91.00;;;;;;5043233;28;20219;-79
2021/04/20 03:15:18;;;;;;;13.47;11.47;;;6.70;90.90;;;;;;5050891;28;20222;-79
2021/04/20 03:17:48;;;;;;;12.97;10.97;;;6.70;90.90;;;;;;5046028;28;20218;-79
2021/04/20 03:20:17;;;;;;;14.53;10.67;;;6.70;90.80;;;;;;5035192;28;20226;-79
2021/04/20 03:22:47;;;;;;;13.07;10.57;;;6.70;90.80;;;;;;5031734;28;20301;-80
2021/04/20 03:25:18;;;;;;;16.80;11.77;;;6.70;90.80;;;;;;5034728;28;20207;-79
2021/04/20 03:27:47;;;;;;;15.27;11.30;;;6.70;90.70;;;;;;5031197;28;20226;-79
2021/04/20 03:30:18;;;;;;;12.90;11.40;;;6.60;90.80;;;;;;5024433;28;20236;-79
2021/04/20 03:33:00;;;;;;;15.37;11.80;;;6.60;90.80;;;;;;5041365;28;20516;-79
2021/04/20 03:35:53;;;;;;;16.20;12.87;;;6.50;90.90;;;;;;5034748;28;20713;-79
2021/04/20 03:38:46;;;;;;;14.83;10.70;;;6.50;90.90;;;;;;5005694;28;20239;-79
2021/04/20 03:41:21;;;;;;;15.97;11.53;;;6.50;91.00;;;;;;5061714;28;20812;-79
2021/04/20 03:43:52;;;;;;;13.30;11.73;;;6.40;91.10;;;;;;5053615;28;20250;-79
2021/04/20 03:46:31;;;;;;;12.13;9.43;;;6.40;91.10;;;;;;5048786;28;20227;-79
2021/04/20 03:49:16;;;;;;;16.77;11.93;;;6.40;91.10;;;;;;5030411;28;20218;-79
2021/04/20 03:51:50;;;;;;;13.33;11.40;;;6.40;91.10;;;;;;5040833;28;20280;-79
2021/04/20 03:54:19;;;;;;;17.07;11.27;;;6.40;91.00;;;;;;5041423;28;20229;-80
2021/04/20 03:56:49;;;;;;;12.90;11.30;;;6.40;90.90;;;;;;5039328;28;20213;-80
2021/04/20 03:59:19;;;;;;;15.70;11.80;;;6.30;90.80;;;;;;5031626;28;20260;-79
2021/04/20 04:01:50;;;;;;;14.27;11.80;;;6.20;90.80;;;;;;5049779;28;20428;-79
2021/04/20 04:04:26;;;;;;;17.83;13.00;;;6.20;90.90;;;;;;5039153;28;20263;-79
2021/04/20 04:06:55;;;;;;;21.03;14.13;;;6.20;91.00;;;;;;5060369;28;20214;-79
2021/04/20 04:09:26;;;;;;;15.90;11.37;;;6.20;91.00;;;;;;5036863;28;20301;-79
2021/04/20 04:12:03;;;;;;;15.43;11.93;;;6.20;91.00;;;;;;5034545;28;20218;-79
2021/04/20 04:14:33;;;;;;;15.57;11.17;;;6.20;90.90;;;;;;5045048;28;20218;-79
2021/04/20 04:17:06;;;;;;;10.27;9.17;;;6.20;90.90;;;;;;5035154;28;20219;-79
2021/04/20 04:19:40;;;;;;;12.53;10.07;;;6.10;90.80;;;;;;5033345;28;20210;-79
2021/04/20 04:22:15;;;;;;;12.90;10.43;;;6.10;90.80;;;;;;5031003;28;20365;-79
2021/04/20 04:24:47;;;;;;;14.60;10.70;;;6.10;90.80;;;;;;5061469;28;20634;-79
2021/04/20 04:27:16;;;;;;;17.77;11.93;;;6.10;90.80;;;;;;5038286;28;20217;-77
2021/04/20 04:29:46;;;;;;;14.37;11.73;;;6.10;90.80;;;;;;5041188;28;20276;-79
2021/04/20 04:32:17;;;;;;;14.80;11.50;;;6.10;90.80;;;;;;5047848;28;20226;-79
2021/04/20 04:34:46;;;;;;;15.77;11.87;;;6.10;90.80;;;;;;5038954;28;20279;-79
2021/04/20 04:37:16;;;;;;;14.37;11.27;;;6.20;90.90;;;;;;5047810;28;20306;-81
2021/04/20 04:39:44;;;;;;;16.80;12.37;;;6.20;90.90;;;;;;5041682;28;20635;-79
2021/04/20 04:42:12;;;;;;;15.57;12.53;;;6.20;90.90;;;;;;5042328;28;20207;-79
2021/04/20 04:44:40;;;;;;;16.70;12.47;;;6.30;90.90;;;;;;5041817;28;20206;-79
2021/04/20 04:47:08;;;;;;;22.73;14.27;;;6.30;91.20;;;;;;5045189;28;20229;-79
2021/04/20 04:49:36;;;;;;;27.50;13.90;;;6.30;90.90;;;;;;5044985;28;20220;-80
2021/04/20 04:52:04;;;;;;;16.60;12.60;;;6.40;91.20;;;;;;5041743;28;20211;-80
2021/04/20 04:54:32;;;;;;;13.67;10.50;;;6.50;90.90;;;;;;5025006;28;20215;-79
2021/04/20 04:57:01;;;;;;;16.60;11.43;;;6.60;90.80;;;;;;5040251;28;20222;-79
2021/04/20 04:59:30;;;;;;;20.10;13.40;;;6.60;90.70;;;;;;5025119;28;20211;-79
2021/04/20 05:01:58;;;;;;;19.27;14.03;;;6.70;90.70;;;;;;5053447;28;20215;-80
2021/04/20 05:04:26;;;;;;;20.73;13.57;;;6.80;90.60;;;;;;5042259;28;20241;-79
2021/04/20 05:06:53;;;;;;;19.47;13.10;;;6.80;90.50;;;;;;5030331;28;20245;-80
2021/04/20 05:09:22;;;;;;;14.73;12.47;;;7.00;90.60;;;;;;5034995;28;20643;-79
2021/04/20 05:11:52;;;;;;;15.43;11.80;;;7.10;90.60;;;;;;5041199;28;20641;-79
2021/04/20 05:14:22;;;;;;;15.83;12.17;;;7.20;90.50;;;;;;5035738;28;20212;-79
2021/04/20 05:16:52;;;;;;;21.30;13.37;;;7.50;90.50;;;;;;5033388;28;20206;-79
2021/04/20 05:19:30;;;;;;;20.07;13.23;;;7.80;90.20;;;;;;5042832;28;20845;-79
2021/04/20 05:21:59;;;;;;;18.03;13.67;;;8.20;89.80;;;;;;5052094;28;20287;-79
2021/04/20 05:24:27;;;;;;;17.23;13.57;;;8.50;88.40;;;;;;5035055;28;20275;-79
2021/04/20 05:26:56;;;;;;;18.70;14.47;;;8.60;87.50;;;;;;5045993;28;20594;-79
2021/04/20 05:29:24;;;;;;;19.27;13.63;;;8.60;87.10;;;;;;5033802;28;20292;-79
2021/04/20 05:31:51;;;;;;;20.23;15.17;;;8.60;86.90;;;;;;5029928;28;20513;-79
2021/04/20 05:34:20;;;;;;;18.33;15.63;;;8.50;86.80;;;;;;5033338;28;20332;-80
2021/04/20 05:36:49;;;;;;;22.37;14.77;;;8.50;86.80;;;;;;5040383;28;20219;-79
2021/04/20 05:39:18;;;;;;;19.00;14.77;;;8.50;86.80;;;;;;5055507;28;20219;-79
2021/04/20 05:41:45;;;;;;;21.37;15.60;;;8.50;86.50;;;;;;5055713;28;20240;-79
2021/04/20 05:44:14;;;;;;;19.50;14.13;;;8.50;86.60;;;;;;5035539;28;20254;-80
2021/04/20 05:46:47;;;;;;;21.03;13.97;;;8.50;86.40;;;;;;5042628;28;20253;-79
2021/04/20 05:49:19;;;;;;;18.43;15.27;;;8.60;86.40;;;;;;5034929;28;20246;-79
2021/04/20 05:51:47;;;;;;;23.43;15.37;;;8.70;86.50;;;;;;5038977;28;20226;-80
2021/04/20 05:54:14;;;;;;;19.40;15.93;;;8.90;86.60;;;;;;5062695;28;20629;-79
2021/04/20 05:56:41;;;;;;;20.73;15.83;;;9.10;86.60;;;;;;5048257;28;20247;-79
2021/04/20 05:59:09;;;;;;;19.93;17.27;;;9.30;86.20;;;;;;5029226;28;20227;-78
2021/04/20 06:01:41;;;;;;;22.93;18.63;;;9.50;86.20;;;;;;5042952;28;20218;-80
2021/04/20 06:04:10;;;;;;;20.90;17.57;;;9.70;85.70;;;;;;5034494;28;20241;-79
2021/04/20 06:06:42;;;;;;;22.40;17.60;;;9.80;85.40;;;;;;5040578;28;20214;-79
2021/04/20 06:09:10;;;;;;;22.03;17.20;;;10.00;85.10;;;;;;5037711;28;20217;-79
2021/04/20 06:11:39;;;;;;;23.37;17.77;;;10.20;84.80;;;;;;5054937;28;20437;-79
2021/04/20 06:14:07;;;;;;;21.20;17.13;;;10.40;84.50;;;;;;5058120;28;20275;-79
2021/04/20 06:16:36;;;;;;;22.67;17.17;;;10.60;83.50;;;;;;5056069;28;20218;-79
2021/04/20 06:19:04;;;;;;;19.90;17.20;;;10.80;82.50;;;;;;5030598;28;20219;-79
2021/04/20 06:21:33;;;;;;;18.67;16.67;;;11.00;81.40;;;;;;5060238;28;20214;-79
2021/04/20 06:24:02;;;;;;;25.80;15.80;;;11.20;80.20;;;;;;5026801;28;20223;-79
2021/04/20 06:26:32;;;;;;;21.23;16.97;;;11.30;79.50;;;;;;5056593;28;20222;-79
2021/04/20 06:29:01;;;;;;;19.80;16.30;;;11.50;79.00;;;;;;5040204;28;20218;-80
2021/04/20 06:31:31;;;;;;;25.13;16.43;;;11.70;78.30;;;;;;5041268;28;20243;-79
2021/04/20 06:34:03;;;;;;;21.77;16.30;;;11.90;77.70;;;;;;5056208;28;20222;-79
2021/04/20 06:36:30;;;;;;;23.03;17.03;;;12.10;77.10;;;;;;5036991;28;20310;-79
2021/04/20 06:38:58;;;;;;;19.70;16.73;;;12.20;76.70;;;;;;5041745;28;20246;-80
2021/04/20 06:41:30;;;;;;;21.37;18.10;;;12.30;75.90;;;;;;5041707;28;20795;-80
2021/04/20 06:44:15;;;;;;;20.73;16.50;;;12.50;75.80;;;;;;5041560;28;20256;-80
2021/04/20 06:46:54;;;;;;;24.37;18.43;;;12.70;75.50;;;;;;5028686;28;20271;-79
2021/04/20 06:49:42;;;;;;;25.83;18.00;;;12.90;75.10;;;;;;5036449;28;20211;-80
2021/04/20 06:52:45;;;;;;;34.27;19.93;;;13.10;74.50;;;;;;5053096;28;20252;-80
2021/04/20 06:55:27;;;;;;;23.20;19.50;;;13.30;73.80;;;;;;5050874;28;20214;-79
2021/04/20 06:58:20;;;;;;;25.33;20.00;;;13.50;73.60;;;;;;5039349;28;20643;-80
2021/04/20 07:00:57;;;;;;;21.80;18.77;;;13.70;73.10;;;;;;5040498;28;20215;-80
2021/04/20 07:03:41;;;;;;;30.03;20.50;;;13.90;72.70;;;;;;5023686;28;20224;-80
2021/04/20 07:06:23;;;;;;;25.10;21.00;;;13.90;72.20;;;;;;5039626;28;20218;-80
2021/04/20 07:09:00;;;;;;;27.23;21.80;;;14.10;72.10;;;;;;5030690;28;20239;-80
2021/04/20 07:11:31;;;;;;;25.33;21.03;;;14.20;72.20;;;;;;5037227;28;20274;-80
2021/04/20 07:14:01;;;;;;;23.90;21.30;;;14.40;72.00;;;;;;5020268;28;20624;-80
2021/04/20 07:16:33;;;;;;;24.67;20.80;;;14.50;71.10;;;;;;5023039;28;20230;-80
2021/04/20 07:19:11;;;;;;;27.80;22.60;;;14.60;71.10;;;;;;5031254;28;20221;-80
2021/04/20 07:22:08;;;;;;;27.73;22.57;;;14.80;71.00;;;;;;5031016;28;20280;-80
2021/04/20 07:25:01;;;;;;;28.73;23.50;;;14.90;70.80;;;;;;5041836;28;20258;-80
2021/04/20 07:27:46;;;;;;;27.77;22.53;;;15.10;70.10;;;;;;5041055;28;20220;-80
2021/04/20 07:30:25;;;;;;;26.83;21.60;;;15.30;69.40;;;;;;5039838;28;20633;-80
2021/04/20 07:33:06;;;;;;;28.37;22.33;;;15.50;68.80;;;;;;5033325;28;20215;-80
2021/04/20 07:36:04;;;;;;;27.97;21.63;;;15.60;68.40;;;;;;5024609;28;20282;-80
2021/04/20 07:38:38;;;;;;;24.60;21.20;;;15.80;67.60;;;;;;5024041;28;20207;-80
2021/04/20 07:41:31;;;;;;;26.33;23.27;;;15.90;67.10;;;;;;5029316;28;20282;-80
2021/04/20 07:44:06;;;;;;;26.37;20.70;;;16.10;67.30;;;;;;5028344;28;20224;-80
2021/04/20 07:46:45;;;;;;;25.77;21.70;;;16.30;66.80;;;;;;5033104;28;20219;-80
2021/04/20 07:49:45;;;;;;;24.27;20.93;;;16.50;66.10;;;;;;5029011;28;20254;-80
2021/04/20 07:52:30;;;;;;;23.47;20.10;;;16.70;65.40;;;;;;5034862;28;20911;-80
2021/04/20 07:55:18;;;;;;;23.47;19.20;;;16.90;65.10;;;;;;5028265;28;20231;-80
2021/04/20 07:57:51;;;;;;;27.00;19.87;;;17.00;65.00;;;;;;5037541;28;20211;-80
2021/04/20 08:00:33;;;;;;;21.83;19.63;;;17.20;64.20;;;;;;5021678;28;20223;-80
2021/04/20 08:03:26;;;;;;;23.10;19.63;;;17.30;64.10;;;;;;5035984;28;20223;-80
2021/04/20 08:06:09;;;;;;;23.40;18.97;;;17.50;63.80;;;;;;5032923;28;20223;-80
2021/04/20 08:08:51;;;;;;;25.80;19.27;;;17.60;62.60;;;;;;5052983;28;20234;-80
2021/04/20 08:11:47;;;;;;;23.73;20.73;;;17.80;62.60;;;;;;5044352;28;20238;-81
2021/04/20 08:14:18;;;;;;;21.57;18.90;;;18.00;62.50;;;;;;5034538;28;20297;-80
2021/04/20 08:16:51;;;;;;;26.03;20.07;;;18.10;61.90;;;;;;5047870;28;20227;-81
2021/04/20 08:19:50;;;;;;;21.67;19.33;;;18.30;60.70;;;;;;5039584;28;20307;-80
2021/04/20 08:22:18;;;;;;;20.80;18.50;;;18.40;60.30;;;;;;5027816;28;20222;-80
2021/04/20 08:24:59;;;;;;;25.20;19.47;;;18.50;59.40;;;;;;5034499;28;20217;-80
2021/04/20 08:27:38;;;;;;;22.93;18.00;;;18.60;59.20;;;;;;5035786;28;20211;-80
2021/04/20 08:30:31;;;;;;;23.47;16.03;;;18.80;59.30;;;;;;5023227;28;20659;-80
2021/04/20 08:33:01;;;;;;;20.13;16.53;;;19.00;57.60;;;;;;5040250;28;20250;-80
2021/04/20 08:35:29;;;;;;;19.13;14.83;;;19.20;56.70;;;;;;5023761;28;20196;-80
2021/04/20 08:38:32;;;;;;;19.30;15.53;;;19.30;55.80;;;;;;5043620;28;20280;-80
2021/04/20 08:41:13;;;;;;;24.57;17.80;;;19.40;54.60;;;;;;5066688;28;20626;-80
2021/04/20 08:43:59;;;;;;;18.70;15.93;;;19.50;55.10;;;;;;5047359;28;20210;-80
2021/04/20 08:46:54;;;;;;;19.63;15.93;;;19.70;54.60;;;;;;5042938;28;20610;-80
2021/04/20 08:49:43;;;;;;;18.70;14.47;;;19.70;53.80;;;;;;5039089;28;20214;-80
2021/04/20 08:52:23;;;;;;;19.43;16.20;;;19.90;53.80;;;;;;5042928;28;20268;-80
2021/04/20 08:54:50;;;;;;;20.97;16.93;;;20.00;53.90;;;;;;5055269;28;20211;-80
2021/04/20 08:57:22;;;;;;;19.50;16.10;;;20.20;53.50;;;;;;5038348;28;20222;-80
2021/04/20 09:00:03;;;;;;;22.07;17.60;;;20.30;53.20;;;;;;5051152;28;20307;-80
2021/04/20 09:02:49;;;;;;;21.57;16.80;;;20.40;52.50;;;;;;5032423;28;20626;-80
2021/04/20 09:05:24;;;;;;;17.20;14.40;;;20.50;52.40;;;;;;5032538;28;20921;-80
2021/04/20 09:08:05;;;;;;;21.07;15.73;;;20.60;51.30;;;;;;5029908;28;20234;-80
2021/04/20 09:10:42;;;;;;;20.30;15.13;;;20.70;51.20;;;;;;5045306;28;20788;-80
2021/04/20 09:13:21;;;;;;;22.80;16.13;;;20.80;51.50;;;;;;5042289;28;20302;-81
2021/04/20 09:16:02;;;;;;;18.23;14.90;;;20.90;51.30;;;;;;5047546;28;20245;-80
2021/04/20 09:18:46;;;;;;;18.73;15.03;;;21.00;50.80;;;;;;5026751;28;20257;-81
2021/04/20 09:21:17;;;;;;;20.43;15.83;;;21.20;50.40;;;;;;5028278;28;20215;-81
2021/04/20 09:24:00;;;;;;;19.63;14.87;;;21.20;49.70;;;;;;5042958;28;20293;-80
2021/04/20 09:26:54;;;;;;;21.93;15.40;;;21.30;48.60;;;;;;5045092;28;20289;-81
2021/04/20 09:29:29;;;;;;;19.80;15.10;;;21.40;48.30;;;;;;5031589;28;20246;-80
2021/04/20 09:31:58;;;;;;;22.50;15.47;;;21.50;47.90;;;;;;5040189;28;20264;-80
2021/04/20 09:34:30;;;;;;;22.20;14.87;;;21.60;48.10;;;;;;5061228;28;20203;-80
2021/04/20 09:36:58;;;;;;;18.60;14.40;;;21.70;47.40;;;;;;5060600;28;20220;-81
2021/04/20 09:39:29;;;;;;;17.10;13.47;;;21.80;48.00;;;;;;5037573;28;20596;-81
2021/04/20 09:42:01;;;;;;;21.37;14.40;;;21.90;47.20;;;;;;5037335;28;20234;-80
2021/04/20 09:44:58;;;;;;;23.10;14.63;;;22.00;47.60;;;;;;5045560;28;20310;-81
2021/04/20 09:47:58;;;;;;;20.43;15.27;;;22.10;47.10;;;;;;5019305;28;20231;-79
2021/04/20 09:50:35;;;;;;;18.83;14.20;;;22.20;46.40;;;;;;5000648;28;20233;-80
2021/04/20 09:53:16;;;;;;;20.00;15.27;;;22.30;46.60;;;;;;5019157;28;20211;-81
2021/04/20 09:55:50;;;;;;;19.73;14.40;;;22.40;46.60;;;;;;4997129;28;20250;-81
2021/04/20 09:58:21;;;;;;;22.70;16.27;;;22.50;45.40;;;;;;5003780;28;20270;-80
2021/04/20 10:00:50;;;;;;;22.03;16.07;;;22.50;45.40;;;;;;5002981;28;20230;-80
2021/04/20 10:03:54;;;;;;;22.03;15.87;;;22.60;45.00;;;;;;5002798;28;20211;-80
2021/04/20 10:07:21;;;;;;;24.33;16.23;;;22.70;43.80;;;;;;4991100;28;20306;-80
2021/04/20 10:10:14;;;;;;;26.53;16.83;;;22.70;43.90;;;;;;4994710;28;20224;-81
2021/04/20 10:12:54;;;;;;;23.30;15.83;;;22.70;43.30;;;;;;4994470;28;20311;-80
2021/04/20 10:15:40;;;;;;;23.80;15.83;;;22.80;43.60;;;;;;5018146;28;20224;-79
2021/04/20 10:18:23;;;;;;;21.97;16.87;;;22.80;43.30;;;;;;5007407;28;20215;-80
2021/04/20 10:21:03;;;;;;;26.67;16.57;;;22.80;43.50;;;;;;5028015;28;20224;-80
2021/04/20 10:24:09;;;;;;;24.13;17.20;;;22.80;42.40;;;;;;5019639;28;20188;-81
2021/04/20 10:26:42;;;;;;;25.33;15.27;;;23.00;42.00;;;;;;5024681;28;20215;-80
2021/04/20 10:29:27;;;;;;;25.43;17.33;;;23.00;42.00;;;;;;5031852;28;20207;-81
2021/04/20 10:32:14;;;;;;;25.97;17.80;;;22.90;41.00;;;;;;5038215;28;20242;-81
2021/04/20 10:34:49;;;;;;;25.90;17.57;;;22.90;41.80;;;;;;5034197;28;20219;-81
2021/04/20 10:37:47;;;;;;;28.30;18.80;;;23.00;42.70;;;;;;5020140;28;20204;-80
2021/04/20 10:40:22;;;;;;;29.30;18.63;;;23.00;41.00;;;;;;5033371;28;20215;-80
2021/04/20 10:42:50;;;;;;;26.67;17.27;;;22.90;41.40;;;;;;5036409;28;20313;-80
2021/04/20 10:45:26;;;;;;;26.60;18.80;;;22.80;41.60;;;;;;5044882;28;20245;-80
2021/04/20 10:47:54;;;;;;;26.77;17.63;;;22.90;40.80;;;;;;5048202;28;20302;-80
2021/04/20 11:00:59;;;;;;;29.27;18.10;;;23.10;40.80;;;;;;5024039;28;20235;-70
2021/04/20 11:03:31;;;;;;;27.60;18.70;;;23.10;39.40;;;;;;5021424;28;20217;-70
2021/04/20 11:05:57;;;;;;;29.73;18.87;;;23.20;39.00;;;;;;5026702;28;20208;-69
2021/04/20 11:08:37;;;;;;;28.30;18.97;;;23.20;38.00;;;;;;5023975;28;20223;-71
2021/04/20 11:11:06;;;;;;;27.70;18.00;;;23.20;38.70;;;;;;5017394;28;20328;-70
2021/04/20 11:13:38;;;;;;;25.33;18.13;;;23.10;38.40;;;;;;5023823;28;20242;-71
2021/04/20 11:16:09;;;;;;;25.40;17.90;;;23.10;37.70;;;;;;5022025;28;20334;-70
2021/04/20 11:18:38;;;;;;;28.47;18.53;;;23.00;38.80;;;;;;5025753;28;20219;-70
2021/04/20 11:21:12;;;;;;;28.80;19.43;;;23.00;40.10;;;;;;5025739;28;20255;-70
2021/04/20 11:24:03;;;;;;;27.17;18.23;;;23.00;40.00;;;;;;5017429;28;20223;-70
2021/04/20 11:26:34;;;;;;;25.33;19.07;;;23.10;40.10;;;;;;5017351;28;20574;-72
2021/04/20 11:29:14;;;;;;;26.27;19.33;;;23.20;39.70;;;;;;5024526;28;20285;-72
2021/04/20 11:31:46;;;;;;;24.30;18.70;;;23.30;37.60;;;;;;5006637;28;20231;-72
2021/04/20 11:34:27;;;;;;;28.33;19.43;;;23.20;37.90;;;;;;5013661;28;20223;-72
2021/04/20 11:36:58;;;;;;;29.50;19.20;;;23.10;37.60;;;;;;5025607;28;20211;-72
2021/04/20 11:39:35;;;;;;;26.13;18.93;;;23.00;36.90;;;;;;5021067;28;20857;-72
2021/04/20 11:42:06;;;;;;;27.13;18.33;;;22.80;38.20;;;;;;5025187;28;20220;-72
2021/04/20 11:44:52;;;;;;;25.83;18.47;;;22.60;39.70;;;;;;5005901;28;20223;-72
2021/04/20 11:47:19;;;;;;;23.90;17.47;;;22.50;39.00;;;;;;5015450;28;20220;-71
2021/04/20 11:50:08;;;;;;;34.87;20.80;;;22.50;39.90;;;;;;5022305;28;20219;-71
2021/04/20 11:52:36;;;;;;;29.77;19.93;;;22.60;37.50;;;;;;5024296;28;20245;-71
2021/04/20 11:55:10;;;;;;;26.20;17.77;;;22.60;38.00;;;;;;5017145;28;20509;-71
2021/04/20 11:57:39;;;;;;;22.03;16.20;;;22.60;39.00;;;;;;5020840;28;20577;-71
2021/04/20 12:00:08;;;;;;;24.13;17.10;;;22.70;38.80;;;;;;5024908;28;20583;-71
2021/04/20 12:02:36;;;;;;;23.63;17.60;;;22.80;39.10;;;;;;5006256;28;20650;-71
2021/04/20 12:05:05;;;;;;;19.30;15.23;;;22.90;38.90;;;;;;5006975;28;20270;-71
2021/04/20 12:07:35;;;;;;;22.97;16.87;;;23.00;38.90;;;;;;5007239;28;20233;-71
2021/04/20 12:10:03;;;;;;;24.57;16.40;;;23.00;37.70;;;;;;5022789;28;20242;-71
2021/04/20 12:12:32;;;;;;;21.77;16.77;;;23.00;37.00;;;;;;5004532;28;20243;-71
2021/04/20 12:15:01;;;;;;;23.23;17.20;;;23.00;36.00;;;;;;5016760;28;20628;-71
2021/04/20 12:17:30;;;;;;;21.93;15.83;;;22.90;36.10;;;;;;5026051;28;20218;-71
2021/04/20 12:20:02;;;;;;;22.47;16.43;;;22.70;36.70;;;;;;5007978;28;20299;-71
2021/04/20 12:22:30;;;;;;;23.90;17.40;;;22.60;37.00;;;;;;5026948;28;20303;-71
2021/04/20 12:24:58;;;;;;;22.07;15.97;;;22.50;37.20;;;;;;5010432;28;20219;-71
2021/04/20 12:27:26;;;;;;;25.40;17.10;;;22.50;38.60;;;;;;5025311;28;20545;-71
2021/04/20 12:29:55;;;;;;;21.53;16.33;;;22.50;39.20;;;;;;5025243;28;20226;-71
2021/04/20 12:32:41;;;;;;;23.67;16.13;;;22.60;39.60;;;;;;5022360;28;20608;-71
2021/04/20 12:35:09;;;;;;;23.73;16.23;;;22.80;39.30;;;;;;5023496;28;20222;-71
2021/04/20 12:37:37;;;;;;;25.30;16.23;;;22.90;37.70;;;;;;5027726;28;20581;-71
2021/04/20 12:40:12;;;;;;;59.23;47.07;;;22.90;38.00;;;;;;5026347;28;20216;-71
2021/04/20 12:42:46;;;;;;;27.90;21.50;;;22.90;37.80;;;;;;5011401;28;20708;-71
2021/04/20 12:45:24;;;;;;;22.13;17.17;;;23.00;37.30;;;;;;5024068;28;20217;-71
2021/04/20 12:47:57;;;;;;;33.23;25.50;;;23.00;36.30;;;;;;5019960;28;20815;-71
2021/04/20 12:50:41;;;;;;;30.70;20.97;;;23.00;38.10;;;;;;5010254;28;20204;-71
2021/04/20 12:53:08;;;;;;;24.07;16.00;;;23.00;38.30;;;;;;5010250;28;20665;-71
2021/04/20 12:55:38;;;;;;;40.87;22.43;;;23.10;37.80;;;;;;5006878;28;20234;-71
2021/04/20 12:58:12;;;;;;;120.10;47.63;;;23.10;36.50;;;;;;5026237;28;20217;-70
2021/04/20 13:00:39;;;;;;;20.73;14.07;;;23.10;36.60;;;;;;5026275;28;20249;-70
2021/04/20 13:03:07;;;;;;;17.10;13.13;;;23.20;36.80;;;;;;5015954;28;20219;-71
2021/04/20 13:05:36;;;;;;;33.07;19.77;;;23.30;36.00;;;;;;5023579;28;20512;-70
2021/04/20 13:08:07;;;;;;;26.00;14.67;;;23.40;36.60;;;;;;5026728;28;20215;-70
2021/04/20 13:10:35;;;;;;;17.17;12.87;;;23.40;36.10;;;;;;5016065;28;20216;-70
2021/04/20 13:13:23;;;;;;;13.23;9.90;;;23.50;35.90;;;;;;5007562;28;20219;-70
2021/04/20 13:15:50;;;;;;;17.40;12.10;;;23.40;34.20;;;;;;5026674;28;20555;-69
2021/04/20 13:18:19;;;;;;;14.17;11.10;;;23.40;34.60;;;;;;5007829;28;20207;-70